Airfield :
LOGIN :

Register | Disclaimer

   EN    FR    IT 

 










Legend :    VFR   Marginal VFR   IFR   Intensive IFR   Very Intensive IFR
Visi :
Ceiling :
>= 8 km
>= 3000ft
5 to 8 km
1000 to 3000 ft
1500m to 5 km
500 to 1000 ft
800 to 1500m
200 to 500 ft
< 800m
< 200 ft
Symbols :   Thunderstorms  Fog  Heavy snow  Heavy precipitations  Wind > 20 kt
SIGMETs :     Misc.  Thunderstorms  Icing  Turbulence  Mountain Waves  Volcanic Ashes






- Airport Elevation : 526 ft
- IATA code : LTN


EGGW - London Luton

CURRENT METAR :
  • 311850Z 27007KT 9999 FEW049TCU 17/13 Q1009

EXPIRED METARs :
  • 311820Z AUTO 25008KT 9999 //////CB 16/13 Q1009
  • 311750Z AUTO 26008KT 9999 //////CB 16/13 Q1009
  • 311720Z AUTO 25008KT 9999 -RA //////CB 18/14 Q1009
  • 311650Z AUTO 26010KT 9999 FEW020/// SCT039/// //////CB 18/14 Q1009
  • 311620Z AUTO 26008KT 9999 //////TCU 18/14 Q1009

TAF AMD TAF EGGW
Valid from the 31 at 18:00 until the 01 at 18:00 UTC


311825Z 3118/0118 27010KT 9999 SCT025
TEMPO 3118/3121 6000 SHRA
PROB30
TEMPO 3118/3120 3000 +SHRA TSGS BKN012
BECMG 3119/3122 04005KT
TEMPO 0105/0114 7000 -RA BKN010
PROB30
TEMPO 0106/0112 BKN006
BECMG 0109/0112 33010KT
PROB30
TEMPO 0112/0114 4000 +SHRA
PROB30
TEMPO 0114/0118 7000 -RA
ATIS : +44 1582 395 204



MET'MAP, your aeronautical weather chart ! - Copyright ORBIFLY December 2007 - Disclaimer

ORBIFLY MET'MAP TEAM :

Programming & Development : Alexandra Zaïnal
Concept & original design : Baudouin d'Aumeries
Assistance for programming : Marc-Olivier Méhu
Technical & hardware support : Manuel Goepfert

Contact : metmap@orbifly.com




SOURCES & CREDITS :

   NOAA